createdAt,value
2019-02-15T00:01:43.079Z,47.64
2019-02-15T00:06:46.562Z,47.63
2019-02-15T00:11:50.050Z,47.61
2019-02-15T00:16:53.524Z,47.60
2019-02-15T00:21:57.015Z,47.58
2019-02-15T00:27:00.513Z,47.56
2019-02-15T00:32:03.998Z,47.56
2019-02-15T00:37:07.488Z,47.53
2019-02-15T00:42:10.966Z,47.51
2019-02-15T00:47:21.523Z,47.45
2019-02-15T00:52:26.651Z,47.48
2019-02-15T00:57:40.799Z,47.47
2019-02-15T01:02:48.893Z,47.46
2019-02-15T01:08:06.035Z,47.46
2019-02-15T01:13:11.145Z,47.44
2019-02-15T01:18:14.623Z,47.41
2019-02-15T01:23:18.090Z,47.42
2019-02-15T01:28:23.203Z,47.40
2019-02-15T01:33:44.557Z,47.41
2019-02-15T01:38:58.311Z,47.38
2019-02-15T01:44:03.424Z,47.38
2019-02-15T01:49:06.899Z,47.34
2019-02-15T01:54:10.363Z,47.35
2019-02-15T01:59:13.834Z,47.33
2019-02-15T02:04:17.376Z,47.32
2019-02-15T02:09:21.322Z,47.29
2019-02-15T02:14:24.794Z,47.29
2019-02-15T02:19:28.275Z,47.29
2019-02-15T02:24:31.746Z,47.26
2019-02-15T02:29:35.210Z,47.25
2019-02-15T02:34:38.678Z,47.23
2019-02-15T02:39:42.146Z,47.24
2019-02-15T02:44:45.624Z,47.22
2019-02-15T02:49:49.091Z,47.21
2019-02-15T02:54:52.569Z,47.15
2019-02-15T02:59:56.039Z,47.16
2019-02-15T03:04:59.519Z,47.15
2019-02-15T03:10:03.349Z,47.16
2019-02-15T03:15:07.870Z,47.12
2019-02-15T03:20:11.332Z,47.13
2019-02-15T03:25:14.795Z,47.11
2019-02-15T03:30:18.267Z,47.09
2019-02-15T03:35:21.730Z,47.08
2019-02-15T03:40:29.833Z,47.08
2019-02-15T03:45:33.263Z,47.06
2019-02-15T03:50:36.750Z,47.06
2019-02-15T03:55:40.206Z,47.04
2019-02-15T04:00:43.676Z,47.04
2019-02-15T04:05:47.150Z,47.04
2019-02-15T04:10:50.627Z,46.99
2019-02-15T04:15:54.090Z,46.99
2019-02-15T04:20:57.565Z,46.96
2019-02-15T04:26:01.040Z,46.96
2019-02-15T04:31:04.517Z,46.97
2019-02-15T04:36:07.993Z,46.95
2019-02-15T04:41:11.454Z,46.94
2019-02-15T04:46:14.922Z,46.93
2019-02-15T04:51:18.447Z,46.88
2019-02-15T04:56:21.873Z,46.99
2019-02-15T05:01:25.338Z,46.96
2019-02-15T05:06:28.810Z,46.90
2019-02-15T05:11:32.278Z,46.84
2019-02-15T05:16:35.753Z,46.89
2019-02-15T05:21:39.222Z,46.92
2019-02-15T05:26:42.697Z,47.00
2019-02-15T05:31:46.173Z,47.02
2019-02-15T05:36:49.646Z,47.08
2019-02-15T05:41:53.155Z,47.11
2019-02-15T05:46:56.590Z,47.13
2019-02-15T05:52:00.065Z,47.18
2019-02-15T05:57:03.542Z,47.18
2019-02-15T06:02:07.012Z,47.30
2019-02-15T06:07:10.478Z,47.25
2019-02-15T06:12:13.950Z,47.27
2019-02-15T06:17:17.425Z,47.29
2019-02-15T06:22:20.898Z,47.29
2019-02-15T06:27:24.371Z,47.33
2019-02-15T06:32:27.846Z,47.32
2019-02-15T06:37:31.317Z,47.39
2019-02-15T06:42:34.783Z,47.38
2019-02-15T06:47:38.258Z,47.37
2019-02-15T06:52:41.721Z,47.35
2019-02-15T06:57:45.188Z,47.38
2019-02-15T07:02:56.127Z,47.37
2019-02-15T07:07:59.601Z,47.22
2019-02-15T07:13:03.075Z,47.22
2019-02-15T07:18:06.552Z,47.39
2019-02-15T07:23:10.027Z,47.40
2019-02-15T07:28:13.497Z,47.30
2019-02-15T07:33:16.976Z,47.28
2019-02-15T07:38:20.440Z,47.15
2019-02-15T07:43:23.913Z,47.12
2019-02-15T07:48:27.388Z,47.46
2019-02-15T07:53:30.863Z,31.24
2019-02-15T07:58:34.332Z,27.29
2019-02-15T08:03:37.804Z,26.80
2019-02-15T08:08:41.266Z,26.35
2019-02-15T08:13:44.736Z,26.07
2019-02-15T08:18:48.216Z,27.88
2019-02-15T08:23:51.690Z,27.88
2019-02-15T08:28:55.160Z,29.83
2019-02-15T08:33:58.641Z,31.60
2019-02-15T08:39:02.116Z,38.57
2019-02-15T08:44:05.593Z,42.22
2019-02-15T08:49:09.067Z,42.91
2019-02-15T08:54:12.538Z,42.34
2019-02-15T08:59:16.011Z,41.93
2019-02-15T09:04:19.482Z,41.78
2019-02-15T09:09:22.952Z,41.79
2019-02-15T09:14:26.419Z,41.82
2019-02-15T09:19:29.892Z,41.79
2019-02-15T09:24:33.358Z,41.95
2019-02-15T09:29:36.830Z,42.13
2019-02-15T09:34:40.310Z,42.18
2019-02-15T09:39:43.783Z,42.37
2019-02-15T09:44:47.254Z,43.01
2019-02-15T09:49:50.727Z,43.69
2019-02-15T09:54:54.205Z,44.04
2019-02-15T09:59:57.666Z,44.37
2019-02-15T10:05:01.144Z,44.61
2019-02-15T10:10:09.013Z,44.55
2019-02-15T10:15:12.710Z,44.45
2019-02-15T10:20:16.186Z,44.33
2019-02-15T10:25:19.656Z,44.28
2019-02-15T10:30:23.130Z,44.22
2019-02-15T10:35:26.607Z,44.16
2019-02-15T10:40:30.080Z,44.05
2019-02-15T10:45:33.551Z,43.97
2019-02-15T10:50:37.022Z,41.48
2019-02-15T10:55:40.493Z,42.13
2019-02-15T11:00:43.970Z,42.33
2019-02-15T11:05:47.438Z,42.58
2019-02-15T11:10:50.909Z,42.76
2019-02-15T11:15:54.378Z,42.92
2019-02-15T11:20:57.851Z,43.04
2019-02-15T11:26:01.335Z,43.12
2019-02-15T11:31:04.806Z,43.17
2019-02-15T11:36:08.285Z,43.23
2019-02-15T11:41:11.763Z,43.26
2019-02-15T11:46:15.223Z,43.29
2019-02-15T11:51:18.703Z,43.36
2019-02-15T11:56:22.173Z,43.39
2019-02-15T12:01:25.642Z,43.47
2019-02-15T12:06:29.120Z,43.57
2019-02-15T12:11:32.767Z,43.64
2019-02-15T12:16:38.130Z,43.67
2019-02-15T12:21:41.434Z,43.76
2019-02-15T12:26:44.908Z,43.98
2019-02-15T12:31:48.382Z,44.35
2019-02-15T12:36:51.851Z,44.55
2019-02-15T12:41:55.325Z,44.51
2019-02-15T12:46:58.786Z,44.59
2019-02-15T12:52:02.259Z,45.37
2019-02-15T12:57:05.727Z,45.49
2019-02-15T13:02:09.219Z,45.89
2019-02-15T13:07:12.662Z,46.16
2019-02-15T13:12:16.134Z,45.76
2019-02-15T13:17:24.632Z,45.40
2019-02-15T13:22:24.803Z,44.62
2019-02-15T13:27:28.275Z,43.80
2019-02-15T13:32:31.744Z,43.12
2019-02-15T13:37:44.583Z,42.78
2019-02-15T13:42:48.058Z,42.38
2019-02-15T13:47:51.538Z,42.23
2019-02-15T13:52:55.014Z,41.89
2019-02-15T13:57:58.491Z,41.54
2019-02-15T14:03:01.970Z,41.34
2019-02-15T14:08:05.444Z,41.09
2019-02-15T14:13:08.924Z,40.99
2019-02-15T14:18:12.407Z,40.75
2019-02-15T14:23:15.903Z,40.57
2019-02-15T14:28:19.403Z,40.37
2019-02-15T14:33:22.908Z,40.49
2019-02-15T14:38:26.398Z,40.49
2019-02-15T14:43:29.885Z,40.53
2019-02-15T14:48:33.374Z,40.36
2019-02-15T14:53:36.866Z,40.34
2019-02-15T14:58:40.381Z,40.31
2019-02-15T15:03:43.866Z,40.31
2019-02-15T15:08:47.349Z,39.82
2019-02-15T15:13:50.830Z,39.07
2019-02-15T15:18:54.308Z,38.98
2019-02-15T15:23:57.786Z,38.72
2019-02-15T15:29:03.296Z,38.49
2019-02-15T15:34:06.772Z,38.39
2019-02-15T15:39:13.146Z,38.34
2019-02-15T15:44:16.650Z,38.33
2019-02-15T15:49:20.137Z,38.40
2019-02-15T15:54:23.632Z,38.41
2019-02-15T15:59:27.131Z,38.36
2019-02-15T16:04:30.627Z,38.16
2019-02-15T16:09:34.124Z,38.61
2019-02-15T16:14:37.617Z,38.95
2019-02-15T16:19:49.417Z,39.17
2019-02-15T16:24:46.318Z,39.53
2019-02-15T16:29:49.811Z,39.53
2019-02-15T16:34:53.286Z,39.51
2019-02-15T16:39:56.764Z,39.54
2019-02-15T16:45:00.399Z,39.54
2019-02-15T16:50:03.897Z,39.72
2019-02-15T16:55:12.871Z,39.87
2019-02-15T17:00:14.958Z,39.96
2019-02-15T17:05:18.431Z,40.12
2019-02-15T17:10:21.983Z,40.26
2019-02-15T17:15:25.465Z,40.57
2019-02-15T17:20:28.944Z,40.95
2019-02-15T17:25:32.418Z,41.47
2019-02-15T17:30:35.898Z,42.15
2019-02-15T17:35:39.370Z,42.59
2019-02-15T17:40:42.851Z,42.83
2019-02-15T17:45:46.322Z,43.05
2019-02-15T17:50:49.803Z,43.15
2019-02-15T17:55:53.287Z,43.19
2019-02-15T18:00:57.140Z,43.19
2019-02-15T18:06:00.616Z,43.31
2019-02-15T18:11:04.085Z,43.32
2019-02-15T18:16:07.570Z,43.44
2019-02-15T18:21:11.048Z,43.56
2019-02-15T18:26:14.531Z,43.56
2019-02-15T18:31:18.007Z,43.66
2019-02-15T18:36:21.482Z,43.63
2019-02-15T18:41:24.958Z,43.68
2019-02-15T18:46:28.437Z,43.72
2019-02-15T18:51:31.920Z,43.73
2019-02-15T18:56:35.393Z,43.74
2019-02-15T19:01:38.900Z,43.78
2019-02-15T19:06:42.378Z,43.80
2019-02-15T19:11:45.854Z,43.78
2019-02-15T19:16:49.331Z,43.81
2019-02-15T19:21:52.807Z,43.83
2019-02-15T19:26:56.283Z,43.73
2019-02-15T19:31:59.764Z,43.76
2019-02-15T19:37:03.238Z,43.77
2019-02-15T19:42:09.971Z,43.83
2019-02-15T19:47:13.473Z,43.80
2019-02-15T19:52:16.963Z,43.79
2019-02-15T19:57:20.456Z,43.81
2019-02-15T20:02:23.948Z,43.79
2019-02-15T20:07:27.443Z,43.80
2019-02-15T20:12:30.934Z,43.77
2019-02-15T20:17:34.427Z,43.81
2019-02-15T20:22:37.914Z,43.85
2019-02-15T20:27:41.408Z,43.86
2019-02-15T20:32:44.900Z,43.87
2019-02-15T20:37:48.406Z,43.84
2019-02-15T20:42:51.907Z,43.86
2019-02-15T20:47:55.402Z,43.86
2019-02-15T20:52:58.898Z,43.86
2019-02-15T20:58:02.391Z,43.85
2019-02-15T21:03:05.882Z,43.86
2019-02-15T21:08:09.376Z,43.85
2019-02-15T21:13:20.204Z,43.85
2019-02-15T21:18:18.084Z,43.87
2019-02-15T21:23:21.580Z,43.82
2019-02-15T21:28:25.068Z,43.84
2019-02-15T21:33:28.559Z,43.86
2019-02-15T21:38:32.056Z,43.92
2019-02-15T21:43:35.556Z,43.99
2019-02-15T21:48:39.050Z,44.07
2019-02-15T21:53:42.545Z,44.05
2019-02-15T21:58:46.039Z,44.11
2019-02-15T22:03:49.534Z,44.17
2019-02-15T22:08:53.018Z,44.23
2019-02-15T22:13:56.507Z,44.38
2019-02-15T22:19:00.002Z,44.47
2019-02-15T22:24:03.494Z,44.50
2019-02-15T22:29:06.986Z,44.50
2019-02-15T22:34:10.484Z,44.57
2019-02-15T22:39:13.979Z,44.59
2019-02-15T22:44:17.466Z,44.62
2019-02-15T22:49:21.021Z,44.63
2019-02-15T22:54:24.539Z,44.67
2019-02-15T22:59:28.029Z,44.70
2019-02-15T23:04:31.523Z,44.71
2019-02-15T23:09:35.093Z,44.70
2019-02-15T23:14:38.592Z,44.75
2019-02-15T23:19:42.082Z,44.76
2019-02-15T23:24:45.570Z,44.78
2019-02-15T23:29:49.058Z,44.77
2019-02-15T23:34:52.553Z,44.80
2019-02-15T23:39:56.051Z,44.81
2019-02-15T23:44:59.541Z,44.84
2019-02-15T23:50:03.293Z,44.88
2019-02-15T23:55:06.951Z,44.87
